Time;durP1;ratioP1;P1;durP2;ratioP2;P2;SDS_P1;SDS_P2;PMS_P1;PMS_P2;Temp;Humidity;BMP_temperature;BMP_pressure;BME280_temperature;BME280_humidity;BME280_pressure;Samples;Min_cycle;Max_cycle;Signal;HPM_P1;HPM_P2
2021/11/12 00:12:44;;;;;;;75.43;22.92;;;2.60;99.90;;;;;;5113506;28;20187;-68
2021/11/12 00:15:12;;;;;;;79.90;22.15;;;2.60;99.90;;;;;;5113805;28;20569;-68
2021/11/12 00:17:40;;;;;;;62.63;23.08;;;2.60;99.90;;;;;;5118066;28;20202;-68
2021/11/12 00:20:08;;;;;;;60.10;23.45;;;2.50;99.90;;;;;;5118260;28;20208;-68
2021/11/12 00:22:35;;;;;;;55.30;21.83;;;2.60;99.90;;;;;;5118042;28;20194;-68
2021/11/12 00:25:02;;;;;;;67.28;22.58;;;2.70;99.90;;;;;;5117899;28;20247;-68
2021/11/12 00:27:30;;;;;;;73.60;22.15;;;2.60;99.90;;;;;;5117941;28;20207;-68
2021/11/12 00:30:23;;;;;;;67.40;24.15;;;2.50;99.90;;;;;;5117432;28;20247;-68
2021/11/12 00:38:14;;;;;;;82.55;20.75;;;2.50;99.90;;;;;;5117777;28;20186;-68
2021/11/12 00:43:14;;;;;;;61.15;22.17;;;2.60;99.90;;;;;;5099453;28;20207;-68
2021/11/12 00:45:48;;;;;;;64.70;23.45;;;2.60;99.90;;;;;;5116544;28;20199;-68
2021/11/12 00:48:27;;;;;;;73.72;22.83;;;2.60;99.90;;;;;;5116889;28;20215;-68
2021/11/12 00:51:09;;;;;;;52.85;21.38;;;2.60;99.90;;;;;;5100717;28;20638;-68
2021/11/12 00:53:50;;;;;;;47.75;20.02;;;2.60;99.90;;;;;;5116374;28;20218;-68
2021/11/12 00:56:19;;;;;;;71.90;21.55;;;2.60;99.90;;;;;;5117305;28;20183;-68
2021/11/12 00:58:45;;;;;;;53.90;22.27;;;2.60;99.90;;;;;;5117113;28;20259;-68
2021/11/12 01:01:13;;;;;;;62.90;24.20;;;2.60;99.90;;;;;;5116750;28;20666;-68
2021/11/12 01:03:39;;;;;;;84.68;25.63;;;2.60;99.90;;;;;;5116659;28;20202;-67
2021/11/12 01:06:06;;;;;;;123.22;29.30;;;2.70;99.90;;;;;;5116709;28;20213;-66
2021/11/12 01:08:33;;;;;;;83.45;25.40;;;2.60;99.90;;;;;;5098057;28;20223;-66
2021/11/12 01:10:59;;;;;;;78.47;26.88;;;2.60;99.90;;;;;;5116345;28;20199;-68
2021/11/12 01:13:26;;;;;;;80.43;27.23;;;2.50;99.90;;;;;;5116636;28;20247;-67
2021/11/12 01:15:53;;;;;;;88.47;26.92;;;2.50;99.90;;;;;;5116659;28;20204;-67
2021/11/12 01:18:21;;;;;;;76.75;26.83;;;2.60;99.90;;;;;;5116474;28;20566;-67
2021/11/12 01:20:48;;;;;;;80.07;25.10;;;2.60;99.90;;;;;;5116567;28;20684;-67
2021/11/12 01:23:15;;;;;;;83.47;26.58;;;2.60;99.90;;;;;;5116467;28;20637;-67
2021/11/12 01:25:42;;;;;;;56.63;23.50;;;2.50;99.90;;;;;;5116875;28;20202;-67
2021/11/12 01:28:09;;;;;;;65.80;24.02;;;2.50;99.90;;;;;;5115092;28;20207;-67
2021/11/12 01:30:35;;;;;;;73.07;23.63;;;2.60;99.90;;;;;;5098393;28;20259;-67
2021/11/12 01:33:03;;;;;;;49.85;23.27;;;2.60;99.90;;;;;;5116813;28;20199;-67
2021/11/12 01:35:31;;;;;;;64.32;24.50;;;2.50;99.90;;;;;;5098535;28;20198;-66
2021/11/12 01:37:58;;;;;;;89.00;25.20;;;2.50;99.90;;;;;;5116361;28;20206;-66
2021/11/12 01:40:27;;;;;;;69.15;22.63;;;2.50;99.90;;;;;;5116149;28;20199;-66
2021/11/12 01:43:03;;;;;;;74.90;24.42;;;2.50;99.90;;;;;;5116209;28;20573;-67
2021/11/12 01:51:11;;;;;;;77.28;22.35;;;2.40;99.90;;;;;;5116203;28;20202;-67
2021/11/12 01:53:49;;;;;;;63.38;23.75;;;2.40;99.90;;;;;;5116010;28;20218;-67
2021/11/12 02:01:44;;;;;;;70.05;22.30;;;2.30;99.90;;;;;;5116879;28;20183;-65
2021/11/12 02:04:12;;;;;;;56.05;24.33;;;2.30;99.90;;;;;;5097299;28;20225;-65
2021/11/12 02:06:40;;;;;;;60.70;23.90;;;2.30;99.90;;;;;;5097576;28;20654;-65
2021/11/12 02:09:11;;;;;;;81.53;23.08;;;2.40;99.90;;;;;;5116135;28;20252;-66
2021/11/12 02:11:37;;;;;;;74.93;22.90;;;2.30;99.90;;;;;;5115838;28;20251;-66
2021/11/12 02:14:06;;;;;;;67.55;23.23;;;2.40;99.90;;;;;;5115690;28;20305;-66
2021/11/12 02:16:36;;;;;;;71.72;23.55;;;2.30;99.90;;;;;;5115553;28;20202;-66
2021/11/12 02:19:05;;;;;;;65.90;24.23;;;2.40;99.90;;;;;;5115045;28;20206;-66
2021/11/12 02:21:48;;;;;;;74.60;24.42;;;2.50;99.90;;;;;;5115387;28;20203;-66
2021/11/12 02:24:15;;;;;;;81.70;24.10;;;2.50;99.90;;;;;;5114903;28;20206;-66
2021/11/12 02:26:48;;;;;;;75.82;23.50;;;2.40;99.90;;;;;;5115651;28;20779;-66
2021/11/12 02:29:16;;;;;;;84.60;24.65;;;2.40;99.90;;;;;;5114820;28;20613;-66
2021/11/12 02:31:43;;;;;;;61.92;23.20;;;2.30;99.90;;;;;;5115178;28;20704;-66
2021/11/12 02:34:14;;;;;;;50.00;22.27;;;2.40;99.90;;;;;;5115164;28;20206;-66
2021/11/12 02:36:41;;;;;;;50.55;22.45;;;2.40;99.90;;;;;;5115283;28;20209;-66
2021/11/12 02:39:12;;;;;;;50.22;21.30;;;2.40;99.90;;;;;;5114682;28;20210;-66
2021/11/12 02:41:40;;;;;;;58.92;21.58;;;2.30;99.90;;;;;;5115359;28;20182;-66
2021/11/12 02:44:08;;;;;;;82.45;22.77;;;2.30;99.90;;;;;;5115408;28;20194;-66
2021/11/12 02:46:35;;;;;;;59.42;21.50;;;2.30;99.90;;;;;;5115075;28;20220;-66
2021/11/12 02:49:02;;;;;;;64.18;22.23;;;2.30;99.90;;;;;;5115198;28;20241;-66
2021/11/12 02:51:33;;;;;;;52.78;21.98;;;2.30;99.90;;;;;;5095980;28;20231;-66
2021/11/12 02:54:01;;;;;;;89.15;24.38;;;2.40;99.90;;;;;;5114271;28;20581;-66
2021/11/12 02:56:29;;;;;;;76.82;24.10;;;2.50;99.90;;;;;;5114304;28;20738;-66
2021/11/12 02:59:06;;;;;;;59.00;21.42;;;2.50;99.90;;;;;;5114618;28;20717;-66
2021/11/12 03:01:36;;;;;;;56.35;23.40;;;2.40;99.90;;;;;;5114509;28;20221;-66
2021/11/12 03:04:05;;;;;;;89.57;21.98;;;2.50;99.90;;;;;;5114833;28;20203;-66
2021/11/12 03:06:35;;;;;;;101.30;22.70;;;2.50;99.90;;;;;;5114647;28;20225;-66
2021/11/12 03:09:06;;;;;;;47.60;22.33;;;2.40;99.90;;;;;;5114211;28;20222;-66
2021/11/12 03:11:34;;;;;;;77.70;24.35;;;2.30;99.90;;;;;;5095799;28;20205;-66
2021/11/12 03:14:02;;;;;;;83.18;24.80;;;2.40;99.90;;;;;;5114591;28;20198;-66
2021/11/12 03:16:28;;;;;;;84.03;24.05;;;2.30;99.90;;;;;;5114427;28;20203;-66
2021/11/12 03:18:56;;;;;;;69.90;22.52;;;2.40;99.90;;;;;;5114019;28;20262;-66
2021/11/12 03:21:25;;;;;;;70.10;23.25;;;2.30;99.90;;;;;;5095905;28;20566;-66
2021/11/12 03:24:06;;;;;;;70.18;25.27;;;2.30;99.90;;;;;;5095821;28;20633;-66
2021/11/12 03:26:39;;;;;;;71.78;21.40;;;2.20;99.90;;;;;;5113450;28;20577;-66
2021/11/12 04:02:05;;;;;;;65.93;21.63;;;2.10;99.90;;;;;;5113862;28;20175;-66
2021/11/12 04:18:11;;;;;;;42.75;18.10;;;2.00;99.90;;;;;;5113965;28;20191;-66
2021/11/12 05:02:57;;;;;;;41.15;18.10;;;2.10;99.90;;;;;;5113339;28;20217;-66
2021/11/12 05:09:49;;;;;;;42.15;19.48;;;2.20;99.90;;;;;;5117052;28;20215;-66
2021/11/12 05:44:32;;;;;;;47.88;20.80;;;2.30;99.90;;;;;;5116657;28;20187;-66
2021/11/12 05:50:08;;;;;;;49.92;19.48;;;2.20;99.90;;;;;;5116126;28;20209;-65
2021/11/12 05:55:19;;;;;;;55.63;22.70;;;2.20;99.90;;;;;;5100862;28;20191;-66
2021/11/12 05:57:46;;;;;;;52.03;20.00;;;2.20;99.90;;;;;;5115218;28;20195;-66
2021/11/12 06:00:16;;;;;;;59.53;23.05;;;2.20;99.90;;;;;;5115965;28;20202;-66
2021/11/12 06:02:42;;;;;;;48.97;21.00;;;2.10;99.90;;;;;;5115181;28;20228;-66
2021/11/12 06:05:09;;;;;;;55.80;22.02;;;2.10;99.90;;;;;;5115929;28;20296;-66
2021/11/12 06:07:36;;;;;;;58.80;24.45;;;2.10;99.90;;;;;;5115464;28;20207;-66
2021/11/12 06:10:04;;;;;;;59.45;22.23;;;2.20;99.90;;;;;;5115999;28;20222;-66
2021/11/12 06:12:31;;;;;;;73.75;21.33;;;2.20;99.90;;;;;;5115426;28;20199;-65
2021/11/12 06:14:58;;;;;;;72.90;25.48;;;2.20;99.90;;;;;;5115381;28;20190;-67
2021/11/12 06:17:25;;;;;;;58.50;22.65;;;2.30;99.90;;;;;;5115726;28;20207;-67
2021/11/12 06:19:52;;;;;;;57.97;21.95;;;2.30;99.90;;;;;;5097074;28;20201;-67
2021/11/12 06:22:18;;;;;;;52.60;18.70;;;2.40;99.90;;;;;;5115801;28;20211;-66
2021/11/12 06:24:46;;;;;;;57.13;21.02;;;2.40;99.90;;;;;;5115379;28;20746;-66
2021/11/12 06:27:13;;;;;;;53.25;21.48;;;2.40;99.90;;;;;;5115420;28;20214;-67
2021/11/12 06:29:41;;;;;;;57.95;21.25;;;2.40;99.90;;;;;;5114786;28;20267;-66
2021/11/12 06:32:07;;;;;;;57.50;20.88;;;2.30;99.90;;;;;;5114886;28;20550;-66
2021/11/12 06:34:33;;;;;;;43.88;19.25;;;2.10;99.90;;;;;;5115151;28;20202;-66
2021/11/12 06:37:00;;;;;;;49.30;20.00;;;2.10;99.90;;;;;;5115392;28;20215;-66
2021/11/12 06:39:27;;;;;;;48.17;19.17;;;2.20;99.90;;;;;;5115217;28;20210;-66
2021/11/12 06:41:56;;;;;;;61.78;21.70;;;2.20;99.90;;;;;;5115148;28;20259;-66
2021/11/12 06:44:38;;;;;;;57.78;22.33;;;2.30;99.90;;;;;;5096670;28;20211;-66
2021/11/12 06:50:04;;;;;;;67.47;26.10;;;2.30;99.90;;;;;;5114905;28;20207;-66
2021/11/12 06:52:31;;;;;;;75.43;20.88;;;2.40;99.90;;;;;;5114754;28;20234;-66
2021/11/12 06:55:01;;;;;;;52.47;21.88;;;2.40;99.90;;;;;;5114349;28;20233;-66
2021/11/12 06:57:28;;;;;;;54.80;24.30;;;2.40;99.90;;;;;;5113799;28;20655;-66
2021/11/12 06:59:54;;;;;;;54.97;23.73;;;2.30;99.90;;;;;;5114631;28;20262;-66
2021/11/12 07:02:22;;;;;;;53.97;23.30;;;2.20;99.90;;;;;;5114877;28;20202;-66
2021/11/12 07:04:49;;;;;;;59.47;26.13;;;2.10;99.90;;;;;;5114807;28;20548;-66
2021/11/12 07:07:16;;;;;;;67.72;25.73;;;2.20;99.90;;;;;;5114326;28;20213;-67
2021/11/12 07:09:46;;;;;;;69.88;27.10;;;2.30;99.90;;;;;;5113968;28;20272;-66
2021/11/12 07:12:14;;;;;;;63.88;23.20;;;2.20;99.90;;;;;;5114373;28;20622;-66
2021/11/12 07:14:44;;;;;;;65.53;24.58;;;2.10;99.90;;;;;;5095974;28;20198;-66
2021/11/12 07:17:12;;;;;;;74.70;21.45;;;2.20;99.90;;;;;;5114034;28;20213;-66
2021/11/12 07:19:39;;;;;;;59.40;23.20;;;2.20;99.90;;;;;;5114592;28;20206;-66
2021/11/12 07:22:06;;;;;;;49.25;23.15;;;2.30;99.90;;;;;;5113496;28;20207;-68
2021/11/12 07:24:33;;;;;;;59.45;25.55;;;2.30;99.90;;;;;;5113728;28;20544;-67
2021/11/12 07:26:59;;;;;;;59.53;25.08;;;2.30;99.90;;;;;;5095687;28;20259;-68
2021/11/12 07:29:28;;;;;;;72.57;23.67;;;2.40;99.90;;;;;;5113925;28;20657;-68
2021/11/12 07:31:55;;;;;;;55.03;25.23;;;2.30;99.90;;;;;;5113637;28;20195;-68
2021/11/12 07:34:25;;;;;;;68.50;26.85;;;2.40;99.90;;;;;;5095897;28;20194;-68
2021/11/12 07:36:57;;;;;;;65.88;26.70;;;2.40;99.90;;;;;;5112777;28;20544;-67
2021/11/12 07:39:49;;;;;;;65.10;26.10;;;2.40;99.90;;;;;;5113457;28;20650;-67
2021/11/12 07:42:39;;;;;;;65.95;27.52;;;2.40;99.90;;;;;;5113823;28;20199;-68
2021/11/12 07:47:52;;;;;;;56.35;26.45;;;2.50;99.90;;;;;;5114009;28;20190;-67
2021/11/12 07:50:18;;;;;;;58.60;26.45;;;2.50;99.90;;;;;;5113459;28;20642;-67
2021/11/12 07:52:45;;;;;;;66.88;26.95;;;2.50;99.90;;;;;;5113343;28;20620;-67
2021/11/12 07:55:12;;;;;;;64.82;27.42;;;2.40;99.90;;;;;;5113559;28;20199;-67
2021/11/12 07:57:38;;;;;;;59.03;27.75;;;2.40;99.90;;;;;;5113970;28;20272;-67
2021/11/12 08:00:07;;;;;;;60.97;26.35;;;2.60;99.90;;;;;;5113950;28;20240;-68
2021/11/12 08:02:33;;;;;;;67.47;28.30;;;2.50;99.90;;;;;;5113137;28;20213;-68
2021/11/12 08:05:07;;;;;;;59.55;27.10;;;2.50;99.90;;;;;;5095249;28;20255;-67
2021/11/12 08:07:34;;;;;;;56.17;24.65;;;2.50;99.90;;;;;;5113024;28;20202;-68
2021/11/12 08:10:03;;;;;;;68.40;26.55;;;2.50;99.90;;;;;;5113396;28;20681;-68
2021/11/12 08:12:38;;;;;;;64.95;24.50;;;2.50;99.90;;;;;;5113832;28;20191;-68
2021/11/12 08:15:29;;;;;;;54.65;24.70;;;2.50;99.90;;;;;;5113198;28;20255;-67
2021/11/12 08:18:11;;;;;;;62.88;25.38;;;2.60;99.90;;;;;;5112917;28;20198;-67
2021/11/12 08:20:48;;;;;;;60.38;26.67;;;2.60;99.90;;;;;;5112941;28;20609;-68
2021/11/12 08:23:24;;;;;;;53.95;24.50;;;2.70;99.90;;;;;;5113309;28;20194;-67
2021/11/12 08:26:05;;;;;;;49.83;23.88;;;2.70;99.90;;;;;;5113370;28;20209;-67
2021/11/12 08:34:39;;;;;;;57.75;26.10;;;2.70;99.90;;;;;;5113424;28;20187;-68
2021/11/12 08:36:58;;;;;;;50.08;24.20;;;2.60;99.90;;;;;;5106129;28;20248;-67
2021/11/12 08:42:08;;;;;;;53.00;24.42;;;2.70;99.90;;;;;;5117601;28;20202;-68
2021/11/12 08:49:38;;;;;;;57.70;24.98;;;2.70;99.90;;;;;;5117347;28;20189;-67
2021/11/12 08:52:06;;;;;;;50.15;23.67;;;2.60;99.90;;;;;;5098718;28;20227;-67
2021/11/12 08:54:37;;;;;;;60.03;25.38;;;2.50;99.90;;;;;;5116769;28;20219;-67
2021/11/12 08:57:09;;;;;;;52.85;22.95;;;2.50;99.90;;;;;;5116846;28;20183;-67
2021/11/12 08:59:39;;;;;;;49.97;24.42;;;2.60;99.90;;;;;;5116541;28;20194;-67
2021/11/12 09:02:11;;;;;;;57.80;22.95;;;2.60;99.90;;;;;;5116463;28;20199;-67
2021/11/12 09:04:38;;;;;;;67.25;24.67;;;2.70;99.90;;;;;;5116815;28;20254;-67
2021/11/12 09:07:04;;;;;;;54.20;24.25;;;2.80;99.90;;;;;;5116571;28;20202;-67
2021/11/12 09:09:33;;;;;;;48.85;24.23;;;2.80;99.90;;;;;;5116736;28;20198;-67
2021/11/12 09:12:00;;;;;;;53.92;25.20;;;2.70;99.90;;;;;;5116616;28;20209;-67
2021/11/12 09:14:28;;;;;;;52.55;24.25;;;2.70;99.90;;;;;;5116917;28;20202;-68
2021/11/12 09:17:03;;;;;;;56.63;24.02;;;2.70;99.90;;;;;;5098572;28;20195;-66
2021/11/12 09:19:29;;;;;;;53.08;24.75;;;2.70;99.90;;;;;;5116079;28;20258;-66
2021/11/12 09:21:55;;;;;;;59.67;23.85;;;2.70;99.90;;;;;;5098756;28;20570;-66
2021/11/12 09:24:22;;;;;;;47.85;22.20;;;2.70;99.90;;;;;;5116617;28;20252;-66
2021/11/12 09:26:48;;;;;;;42.40;21.67;;;2.60;99.90;;;;;;5116321;28;20217;-66
2021/11/12 09:29:15;;;;;;;52.85;23.65;;;2.80;99.90;;;;;;5116139;28;20205;-66
2021/11/12 09:31:42;;;;;;;49.97;22.52;;;2.80;99.90;;;;;;5116598;28;20627;-66
2021/11/12 09:34:11;;;;;;;53.13;23.88;;;2.80;99.90;;;;;;5097733;28;20209;-66
2021/11/12 09:36:38;;;;;;;53.75;22.00;;;2.90;99.90;;;;;;5115882;28;20209;-66
2021/11/12 09:39:05;;;;;;;43.53;21.33;;;2.80;99.90;;;;;;5116805;28;20198;-66
2021/11/12 09:41:32;;;;;;;45.00;21.63;;;2.90;99.90;;;;;;5116070;28;20212;-66
2021/11/12 09:44:02;;;;;;;70.45;20.35;;;2.80;99.90;;;;;;5116159;28;20664;-67
2021/11/12 09:46:31;;;;;;;46.45;21.33;;;2.60;99.90;;;;;;5116426;28;20231;-66
2021/11/12 09:49:00;;;;;;;44.20;21.52;;;2.60;99.90;;;;;;5115167;28;20209;-66
2021/11/12 09:51:27;;;;;;;42.10;19.58;;;2.40;99.90;;;;;;5115337;28;20615;-66
2021/11/12 09:53:54;;;;;;;45.75;20.73;;;2.30;99.90;;;;;;5116342;28;20225;-65
2021/11/12 09:56:21;;;;;;;47.58;20.52;;;2.30;99.90;;;;;;5116404;28;20614;-66
2021/11/12 09:58:51;;;;;;;45.50;20.90;;;2.50;99.90;;;;;;5116024;28;20654;-66
2021/11/12 10:01:29;;;;;;;45.08;20.38;;;2.40;99.90;;;;;;5115542;28;20700;-66
2021/11/12 10:04:15;;;;;;;40.45;20.98;;;2.50;99.90;;;;;;5099438;28;20224;-67
2021/11/12 10:06:43;;;;;;;42.58;19.85;;;2.60;99.90;;;;;;5115659;28;20567;-67
2021/11/12 10:09:20;;;;;;;45.85;19.98;;;2.60;99.90;;;;;;5115375;28;20210;-67
2021/11/12 10:11:55;;;;;;;39.78;19.17;;;2.50;99.90;;;;;;5114723;28;20218;-67
2021/11/12 10:14:25;;;;;;;47.92;20.70;;;2.40;99.90;;;;;;5114931;28;20193;-67
2021/11/12 10:16:56;;;;;;;48.80;21.33;;;2.50;99.90;;;;;;5115508;28;20244;-67
2021/11/12 10:19:25;;;;;;;53.35;23.75;;;2.60;99.90;;;;;;5115267;28;20552;-67
2021/11/12 10:22:03;;;;;;;44.80;21.40;;;2.60;99.90;;;;;;5114989;28;20213;-67
2021/11/12 10:24:37;;;;;;;42.33;21.92;;;2.70;99.90;;;;;;5115449;28;20186;-67
2021/11/12 10:27:15;;;;;;;42.47;21.52;;;2.80;99.90;;;;;;5115424;28;20190;-67
2021/11/12 10:29:46;;;;;;;60.75;27.30;;;2.80;99.90;;;;;;5115353;28;20186;-67
2021/11/12 10:32:24;;;;;;;39.13;20.90;;;2.90;99.90;;;;;;5115675;28;20206;-67
2021/11/12 10:34:56;;;;;;;40.67;20.60;;;2.90;99.90;;;;;;5114616;28;20198;-67
2021/11/12 10:37:30;;;;;;;40.72;21.75;;;2.80;99.90;;;;;;5096960;28;20596;-67
2021/11/12 10:40:04;;;;;;;34.88;20.08;;;2.70;99.90;;;;;;5096733;28;20198;-67
2021/11/12 10:42:38;;;;;;;37.90;19.75;;;2.70;99.90;;;;;;5114832;28;20227;-67
2021/11/12 10:45:09;;;;;;;41.97;20.55;;;2.60;99.90;;;;;;5114541;28;20201;-68
2021/11/12 10:47:51;;;;;;;37.65;21.67;;;2.50;99.90;;;;;;5114979;28;20183;-67
2021/11/12 10:50:20;;;;;;;41.22;21.75;;;2.60;99.90;;;;;;5096445;28;20586;-67
2021/11/12 10:52:47;;;;;;;46.08;20.95;;;2.60;99.90;;;;;;5114889;28;20230;-67
2021/11/12 10:55:17;;;;;;;44.45;21.30;;;2.50;99.90;;;;;;5115219;28;20203;-67
2021/11/12 10:57:49;;;;;;;46.28;21.67;;;2.60;99.90;;;;;;5114298;28;20206;-67
2021/11/12 11:00:25;;;;;;;41.83;21.05;;;2.50;99.90;;;;;;5114863;28;20202;-67
2021/11/12 11:02:55;;;;;;;38.15;21.85;;;2.30;99.90;;;;;;5114813;28;20230;-67
2021/11/12 11:05:26;;;;;;;38.90;20.55;;;2.50;99.90;;;;;;5114334;28;20637;-67
2021/11/12 11:08:04;;;;;;;33.80;19.55;;;2.60;99.90;;;;;;5114102;28;20209;-67
2021/11/12 11:10:33;;;;;;;38.58;19.90;;;2.70;99.90;;;;;;5114910;28;20202;-68
2021/11/12 11:13:22;;;;;;;30.80;19.40;;;2.70;99.90;;;;;;5096181;28;20698;-67
2021/11/12 11:15:57;;;;;;;35.90;18.77;;;2.70;99.90;;;;;;5114221;28;20186;-67
2021/11/12 11:18:26;;;;;;;32.10;20.00;;;2.70;99.90;;;;;;5114191;28;20194;-67
2021/11/12 11:23:55;;;;;;;38.63;19.85;;;2.80;99.90;;;;;;5114553;28;20199;-67
2021/11/12 11:26:45;;;;;;;38.38;20.83;;;3.00;99.90;;;;;;5113776;28;20206;-67
2021/11/12 11:29:20;;;;;;;43.13;23.08;;;3.00;99.90;;;;;;5114587;28;20182;-67
2021/11/12 11:31:47;;;;;;;36.33;19.42;;;3.10;99.90;;;;;;5095276;28;20222;-68
2021/11/12 11:34:14;;;;;;;49.15;28.33;;;3.00;99.90;;;;;;5113318;28;20239;-67
2021/11/12 11:36:45;;;;;;;48.78;22.92;;;2.80;99.90;;;;;;5114444;28;20213;-67
2021/11/12 11:39:18;;;;;;;43.10;18.55;;;2.80;99.90;;;;;;5096015;28;20199;-67
2021/11/12 11:41:46;;;;;;;43.25;21.83;;;2.60;99.90;;;;;;5113719;28;20665;-68
2021/11/12 11:44:15;;;;;;;39.63;21.33;;;2.60;99.90;;;;;;5114006;28;20205;-67
2021/11/12 11:46:44;;;;;;;42.78;20.83;;;2.80;99.90;;;;;;5114243;28;20225;-67
2021/11/12 11:49:20;;;;;;;43.83;22.83;;;2.90;99.90;;;;;;5113964;28;20661;-67
2021/11/12 11:51:50;;;;;;;43.20;20.98;;;2.80;99.90;;;;;;5113073;28;20769;-69
2021/11/12 11:54:21;;;;;;;42.45;21.15;;;2.80;99.90;;;;;;5113788;28;20586;-66
2021/11/12 11:56:49;;;;;;;53.00;20.90;;;2.60;99.90;;;;;;5096294;28;20186;-66
2021/11/12 11:59:21;;;;;;;33.85;19.30;;;2.50;99.90;;;;;;5113681;28;20646;-66
2021/11/12 12:01:47;;;;;;;40.80;22.00;;;2.60;99.90;;;;;;5113718;28;20187;-66
2021/11/12 12:04:14;;;;;;;40.72;21.30;;;2.80;99.90;;;;;;5113331;28;20210;-67
2021/11/12 12:06:43;;;;;;;43.30;20.45;;;3.10;99.90;;;;;;5113622;28;20198;-67
2021/11/12 12:09:13;;;;;;;43.22;20.55;;;3.10;99.90;;;;;;5113306;28;20198;-65
2021/11/12 12:11:46;;;;;;;37.97;22.67;;;3.00;99.90;;;;;;5115696;28;20225;-66
2021/11/12 12:14:19;;;;;;;39.58;18.73;;;3.10;99.90;;;;;;5120533;28;20186;-66
2021/11/12 12:17:23;;;;;;;33.58;18.33;;;3.10;99.90;;;;;;5121275;28;20213;-67
2021/11/12 12:19:58;;;;;;;35.33;19.67;;;3.10;99.90;;;;;;5072769;28;20209;-67
2021/11/12 12:43:11;;;;;;;31.90;17.15;;;2.80;99.90;;;;;;5100242;28;20187;-67
2021/11/12 13:22:43;;;;;;;28.75;16.70;;;2.90;99.90;;;;;;5092826;28;20203;-67
2021/11/12 13:25:23;;;;;;;26.35;16.70;;;3.00;99.90;;;;;;5095397;28;20248;-67
2021/11/12 13:28:18;;;;;;;26.38;16.42;;;2.90;99.90;;;;;;5097026;28;20627;-67
2021/11/12 13:31:08;;;;;;;26.13;17.23;;;2.90;99.90;;;;;;5095543;28;20207;-67
2021/11/12 13:33:50;;;;;;;41.28;16.45;;;2.70;99.90;;;;;;5096519;28;20565;-67
2021/11/12 13:36:22;;;;;;;32.90;18.83;;;2.60;99.90;;;;;;5096627;28;20236;-68
2021/11/12 13:39:19;;;;;;;34.38;21.33;;;2.70;99.90;;;;;;5096088;28;20211;-67
2021/11/12 13:41:49;;;;;;;36.45;19.40;;;2.70;99.90;;;;;;5096913;28;20191;-68
2021/11/12 13:44:19;;;;;;;32.13;18.17;;;2.90;99.90;;;;;;5096806;28;20614;-67
2021/11/12 13:46:54;;;;;;;35.67;21.92;;;2.90;99.90;;;;;;5096866;28;20248;-67
2021/11/12 13:49:32;;;;;;;36.35;18.90;;;2.90;99.90;;;;;;5095327;28;20194;-68
2021/11/12 13:52:07;;;;;;;35.08;18.35;;;3.00;99.90;;;;;;5077382;28;20709;-67
2021/11/12 13:54:43;;;;;;;30.45;16.77;;;3.10;99.90;;;;;;5096098;28;20230;-68
2021/11/12 13:57:16;;;;;;;36.22;17.70;;;3.00;99.90;;;;;;5096498;28;20180;-68
2021/11/12 14:00:04;;;;;;;29.48;17.63;;;2.80;99.90;;;;;;5095660;28;20199;-67
2021/11/12 14:02:52;;;;;;;43.45;19.17;;;2.70;99.90;;;;;;5095398;28;20340;-67
2021/11/12 14:05:19;;;;;;;34.53;18.85;;;2.80;99.90;;;;;;5084933;28;20207;-68
2021/11/12 14:07:45;;;;;;;38.00;20.65;;;2.90;99.90;;;;;;5095641;28;20199;-67
2021/11/12 14:10:15;;;;;;;46.65;20.23;;;2.80;99.90;;;;;;5096810;28;20199;-68
2021/11/12 14:12:53;;;;;;;38.13;19.25;;;2.70;99.90;;;;;;5096405;28;20215;-68
2021/11/12 14:15:27;;;;;;;49.20;20.20;;;2.70;99.90;;;;;;5095987;28;20264;-67
2021/11/12 14:18:15;;;;;;;41.00;19.45;;;2.70;99.90;;;;;;5096003;28;20224;-67
2021/11/12 14:20:53;;;;;;;46.80;20.95;;;2.90;99.90;;;;;;5096018;28;20184;-67
2021/11/12 14:23:23;;;;;;;64.35;21.30;;;2.80;99.90;;;;;;5095177;28;20191;-67
2021/11/12 14:26:18;;;;;;;55.10;20.88;;;2.70;99.90;;;;;;5078242;28;20190;-67
2021/11/12 14:29:02;;;;;;;44.08;20.55;;;2.70;99.90;;;;;;5094607;28;20286;-67
2021/11/12 14:31:48;;;;;;;43.35;22.20;;;2.80;99.90;;;;;;5094811;28;20674;-67
2021/11/12 14:37:07;;;;;;;46.42;21.83;;;2.80;99.90;;;;;;5095329;28;20545;-68
2021/11/12 14:39:46;;;;;;;50.17;22.10;;;2.70;99.90;;;;;;5094904;28;20541;-68
2021/11/12 14:45:16;;;;;;;45.08;23.20;;;2.70;99.90;;;;;;5116717;28;20198;-68
2021/11/12 14:48:00;;;;;;;48.90;23.45;;;2.70;99.90;;;;;;5116123;28;20581;-67
2021/11/12 14:50:43;;;;;;;38.85;19.23;;;2.70;99.90;;;;;;5114764;28;20199;-68
2021/11/12 14:53:20;;;;;;;38.38;19.83;;;2.80;99.90;;;;;;5115031;28;20576;-68
2021/11/12 14:55:52;;;;;;;40.90;21.85;;;2.70;99.90;;;;;;5115047;28;20197;-68
2021/11/12 14:58:20;;;;;;;46.35;23.33;;;2.70;99.90;;;;;;5114676;28;20214;-68
2021/11/12 15:00:47;;;;;;;45.55;21.90;;;2.60;99.90;;;;;;5115639;28;20712;-68
2021/11/12 15:03:14;;;;;;;42.47;21.67;;;2.70;99.90;;;;;;5097154;28;20609;-68
2021/11/12 15:05:41;;;;;;;43.63;21.92;;;2.70;99.90;;;;;;5113763;28;20585;-68
2021/11/12 15:08:22;;;;;;;47.58;23.05;;;2.80;99.90;;;;;;5114482;28;20206;-68
2021/11/12 15:10:49;;;;;;;55.17;22.42;;;2.90;99.90;;;;;;5114906;28;20191;-68
2021/11/12 15:13:17;;;;;;;41.25;21.38;;;2.80;99.90;;;;;;5114178;28;20203;-67
2021/11/12 15:15:44;;;;;;;35.22;20.55;;;2.80;99.90;;;;;;5113927;28;20205;-69
2021/11/12 15:18:12;;;;;;;49.08;23.23;;;2.90;99.90;;;;;;5095468;28;20198;-69
2021/11/12 15:20:40;;;;;;;30.67;16.98;;;2.90;99.90;;;;;;5113690;28;20213;-69
2021/11/12 15:31:04;;;;;;;47.42;20.83;;;2.70;99.90;;;;;;5115018;28;20198;-68
2021/11/12 15:33:31;;;;;;;32.53;19.52;;;2.60;99.90;;;;;;5114545;28;20198;-68
2021/11/12 15:36:00;;;;;;;43.50;20.05;;;2.50;99.90;;;;;;5114245;28;20202;-68
2021/11/12 15:41:13;;;;;;;32.88;17.67;;;2.60;99.90;;;;;;5114181;28;20198;-68
2021/11/12 15:44:00;;;;;;;43.30;19.67;;;2.60;99.90;;;;;;5113833;28;20263;-68
2021/11/12 15:46:31;;;;;;;35.72;18.20;;;2.80;99.90;;;;;;5113779;28;20693;-69
2021/11/12 15:48:58;;;;;;;40.97;19.27;;;2.70;99.90;;;;;;5114432;28;20187;-69
2021/11/12 15:51:31;;;;;;;38.17;20.10;;;2.70;99.90;;;;;;5113998;28;20245;-69
2021/11/12 16:07:30;;;;;;;43.42;22.10;;;2.70;99.90;;;;;;5114135;28;20271;-69
2021/11/12 16:10:26;;;;;;;47.78;23.08;;;2.80;99.90;;;;;;5098957;28;20571;-68
2021/11/12 16:13:27;;;;;;;44.63;21.02;;;2.70;99.90;;;;;;5113911;28;20222;-68
2021/11/12 16:16:37;;;;;;;54.83;23.73;;;2.80;99.90;;;;;;5110225;28;20198;-69
2021/11/12 16:26:44;;;;;;;43.67;21.02;;;2.80;99.90;;;;;;5113766;28;20625;-68
2021/11/12 16:31:52;;;;;;;44.78;20.38;;;2.80;99.90;;;;;;5113856;28;20210;-69
2021/11/12 16:34:22;;;;;;;39.83;20.00;;;2.80;99.90;;;;;;5113603;28;20203;-69
2021/11/12 16:36:56;;;;;;;37.95;19.15;;;2.80;99.90;;;;;;5095552;28;20597;-69
2021/11/12 16:39:36;;;;;;;38.92;18.25;;;2.90;99.90;;;;;;5113758;28;20182;-68
2021/11/12 16:45:12;;;;;;;44.00;18.15;;;2.90;99.90;;;;;;5113688;28;20549;-68
2021/11/12 17:12:05;;;;;;;46.45;22.67;;;2.80;99.90;;;;;;5049303;28;20215;-68
2021/11/12 17:14:52;;;;;;;47.72;24.65;;;2.90;99.90;;;;;;5116835;28;20631;-68
2021/11/12 17:17:30;;;;;;;47.50;22.88;;;2.90;99.90;;;;;;5117955;28;20274;-69
2021/11/12 17:45:14;;;;;;;48.03;24.27;;;2.90;99.90;;;;;;5101914;28;20187;-68
2021/11/12 17:47:43;;;;;;;54.75;24.30;;;2.90;99.90;;;;;;5115868;28;20199;-68
2021/11/12 18:03:43;;;;;;;54.55;22.73;;;2.90;99.90;;;;;;5100982;28;20228;-68
2021/11/12 18:17:50;;;;;;;65.63;30.65;;;3.00;99.90;;;;;;5116269;28;20179;-70
2021/11/12 21:45:44;;;;;;;64.80;22.70;;;2.70;99.90;;;;;;5115264;28;20189;-69
2021/11/12 21:48:10;;;;;;;60.78;21.80;;;2.70;99.90;;;;;;5116064;28;20206;-68
2021/11/12 21:50:37;;;;;;;58.53;21.90;;;2.70;99.90;;;;;;5115633;28;20206;-68
2021/11/12 21:53:05;;;;;;;57.17;22.15;;;2.70;99.90;;;;;;5097303;28;20230;-69
2021/11/12 21:55:32;;;;;;;51.22;21.92;;;2.70;99.90;;;;;;5116304;28;20727;-69
2021/11/12 21:57:59;;;;;;;62.15;22.67;;;2.80;99.90;;;;;;5116110;28;20574;-69
2021/11/12 22:00:27;;;;;;;60.35;21.95;;;2.70;99.90;;;;;;5116076;28;20206;-69
2021/11/12 22:02:55;;;;;;;70.55;22.83;;;2.80;99.90;;;;;;5116013;28;20661;-69
2021/11/12 22:05:21;;;;;;;65.97;22.63;;;2.80;99.90;;;;;;5116098;28;20734;-69
2021/11/12 22:07:48;;;;;;;72.65;25.20;;;2.80;99.90;;;;;;5115984;28;20198;-69
2021/11/12 22:10:15;;;;;;;80.32;24.27;;;2.80;99.90;;;;;;5115948;28;20194;-69
2021/11/12 22:12:42;;;;;;;92.57;24.83;;;2.80;99.90;;;;;;5115574;28;20219;-69
2021/11/12 22:15:10;;;;;;;80.13;25.48;;;2.80;99.90;;;;;;5116002;28;20574;-69
2021/11/12 22:17:37;;;;;;;70.20;23.67;;;2.80;99.90;;;;;;5116204;28;20217;-68
2021/11/12 22:20:06;;;;;;;65.10;23.58;;;2.80;99.90;;;;;;5116060;28;20207;-68
2021/11/12 22:22:33;;;;;;;61.15;23.05;;;2.90;99.90;;;;;;5114957;28;20221;-69